Lupton, Michigan
Current Conditions -  °F | °C
As of 12:53 AM on Monday 20 Oct 2014 (Local Time) from KOSC Reporting Station
Moderate Rain Moderate Rain  
Wind Chill:   Ceiling: 6500
Heat Index:   Visibility: 7mi
Dew Point:   Wind: 5mph
Humidity: 87%   Direction: 190°S
Pressure: 29.87"   Gusts: NA
Location:  44.43°N, 84.03°W
Report Text: KOSC 200453Z AUTO 19004KT 7SM RA SCT029 SCT043 OVC065 07/05 A2987 RMK AO2 P0001 T00750055
Loading
Personal Weather Stations






























Interactive Weather Map
Tropical Storm Tracking
New forecast layout! Learn more

10-Day Weather Forecast

Advertisements
Track Severe Weather on mobile